sensor_id;sensor_type;location;lat;lon;timestamp;temperature;humidity
28438;DHT22;15667;52.376;9.708;2022-07-06T00:01:21;16.60;99.90
28438;DHT22;15667;52.376;9.708;2022-07-06T00:03:47;16.60;99.90
28438;DHT22;15667;52.376;9.708;2022-07-06T00:06:12;16.70;99.90
28438;DHT22;15667;52.376;9.708;2022-07-06T00:08:38;16.80;99.90
28438;DHT22;15667;52.376;9.708;2022-07-06T00:11:04;16.70;99.90
28438;DHT22;15667;52.376;9.708;2022-07-06T00:13:30;16.60;99.90
28438;DHT22;15667;52.376;9.708;2022-07-06T00:15:56;16.60;99.90
28438;DHT22;15667;52.376;9.708;2022-07-06T00:18:21;16.60;99.90
28438;DHT22;15667;52.376;9.708;2022-07-06T00:20:47;16.40;99.90
28438;DHT22;15667;52.376;9.708;2022-07-06T00:23:12;16.30;99.90
28438;DHT22;15667;52.376;9.708;2022-07-06T00:25:38;16.20;99.90
28438;DHT22;15667;52.376;9.708;2022-07-06T00:28:03;16.10;99.90
28438;DHT22;15667;52.376;9.708;2022-07-06T00:30:29;16.10;99.90
28438;DHT22;15667;52.376;9.708;2022-07-06T00:32:55;16.20;99.90
28438;DHT22;15667;52.376;9.708;2022-07-06T00:35:20;16.10;99.90
28438;DHT22;15667;52.376;9.708;2022-07-06T00:37:46;15.90;99.90
28438;DHT22;15667;52.376;9.708;2022-07-06T00:40:11;15.90;99.90
28438;DHT22;15667;52.376;9.708;2022-07-06T00:42:41;15.90;99.90
28438;DHT22;15667;52.376;9.708;2022-07-06T00:45:06;15.90;99.90
28438;DHT22;15667;52.376;9.708;2022-07-06T00:47:32;15.90;99.90
28438;DHT22;15667;52.376;9.708;2022-07-06T00:49:57;15.90;99.90
28438;DHT22;15667;52.376;9.708;2022-07-06T00:52:42;15.80;99.90
28438;DHT22;15667;52.376;9.708;2022-07-06T00:55:11;15.70;99.90
28438;DHT22;15667;52.376;9.708;2022-07-06T00:57:38;15.80;99.90
28438;DHT22;15667;52.376;9.708;2022-07-06T01:00:04;15.80;99.90
28438;DHT22;15667;52.376;9.708;2022-07-06T01:02:33;15.90;99.90
28438;DHT22;15667;52.376;9.708;2022-07-06T01:04:59;15.90;99.90
28438;DHT22;15667;52.376;9.708;2022-07-06T01:07:25;16.10;99.90
28438;DHT22;15667;52.376;9.708;2022-07-06T01:09:50;15.90;99.90
28438;DHT22;15667;52.376;9.708;2022-07-06T01:12:16;15.80;99.90
28438;DHT22;15667;52.376;9.708;2022-07-06T01:14:42;15.90;99.90
28438;DHT22;15667;52.376;9.708;2022-07-06T01:17:07;15.90;99.90
28438;DHT22;15667;52.376;9.708;2022-07-06T01:19:33;15.80;99.90
28438;DHT22;15667;52.376;9.708;2022-07-06T01:21:59;15.80;99.90
28438;DHT22;15667;52.376;9.708;2022-07-06T01:24:25;15.80;99.90
28438;DHT22;15667;52.376;9.708;2022-07-06T01:26:50;15.80;99.90
28438;DHT22;15667;52.376;9.708;2022-07-06T01:29:16;15.80;99.90
28438;DHT22;15667;52.376;9.708;2022-07-06T01:31:48;16.00;99.90
28438;DHT22;15667;52.376;9.708;2022-07-06T01:34:15;16.00;99.90
28438;DHT22;15667;52.376;9.708;2022-07-06T01:36:41;15.90;99.90
28438;DHT22;15667;52.376;9.708;2022-07-06T01:39:07;15.70;99.90
28438;DHT22;15667;52.376;9.708;2022-07-06T01:41:33;15.70;99.90
28438;DHT22;15667;52.376;9.708;2022-07-06T01:43:59;15.70;99.90
28438;DHT22;15667;52.376;9.708;2022-07-06T01:46:24;15.80;99.90
28438;DHT22;15667;52.376;9.708;2022-07-06T01:48:50;15.80;99.90
28438;DHT22;15667;52.376;9.708;2022-07-06T01:51:16;15.80;99.90
28438;DHT22;15667;52.376;9.708;2022-07-06T01:53:41;15.80;99.90
28438;DHT22;15667;52.376;9.708;2022-07-06T01:56:07;15.80;99.90
28438;DHT22;15667;52.376;9.708;2022-07-06T01:58:32;15.60;99.90
28438;DHT22;15667;52.376;9.708;2022-07-06T02:00:58;15.50;99.90
28438;DHT22;15667;52.376;9.708;2022-07-06T02:03:24;15.60;99.90
28438;DHT22;15667;52.376;9.708;2022-07-06T02:05:49;15.60;99.90
28438;DHT22;15667;52.376;9.708;2022-07-06T02:08:15;15.50;99.90
28438;DHT22;15667;52.376;9.708;2022-07-06T02:10:40;15.60;99.90
28438;DHT22;15667;52.376;9.708;2022-07-06T02:13:06;15.50;99.90
28438;DHT22;15667;52.376;9.708;2022-07-06T02:15:32;15.50;99.90
28438;DHT22;15667;52.376;9.708;2022-07-06T02:17:57;15.40;99.90
28438;DHT22;15667;52.376;9.708;2022-07-06T02:20:23;15.40;99.90
28438;DHT22;15667;52.376;9.708;2022-07-06T02:22:48;15.60;99.90
28438;DHT22;15667;52.376;9.708;2022-07-06T02:25:14;15.60;99.90
28438;DHT22;15667;52.376;9.708;2022-07-06T02:27:39;15.60;99.90
28438;DHT22;15667;52.376;9.708;2022-07-06T02:30:05;15.60;99.90
28438;DHT22;15667;52.376;9.708;2022-07-06T02:32:30;15.60;99.90
28438;DHT22;15667;52.376;9.708;2022-07-06T02:34:56;15.50;99.90
28438;DHT22;15667;52.376;9.708;2022-07-06T02:37:21;15.40;99.90
28438;DHT22;15667;52.376;9.708;2022-07-06T02:39:47;15.50;99.90
28438;DHT22;15667;52.376;9.708;2022-07-06T02:42:13;15.40;99.90
28438;DHT22;15667;52.376;9.708;2022-07-06T02:44:40;15.30;99.90
28438;DHT22;15667;52.376;9.708;2022-07-06T02:47:06;15.30;99.90
28438;DHT22;15667;52.376;9.708;2022-07-06T02:49:32;15.40;99.90
28438;DHT22;15667;52.376;9.708;2022-07-06T02:51:57;15.30;99.90
28438;DHT22;15667;52.376;9.708;2022-07-06T02:54:23;15.20;99.90
28438;DHT22;15667;52.376;9.708;2022-07-06T02:56:48;15.30;99.90
28438;DHT22;15667;52.376;9.708;2022-07-06T02:59:17;15.20;99.90
28438;DHT22;15667;52.376;9.708;2022-07-06T03:01:43;15.20;99.90
28438;DHT22;15667;52.376;9.708;2022-07-06T03:04:09;15.10;99.90
28438;DHT22;15667;52.376;9.708;2022-07-06T03:06:34;15.10;99.90
28438;DHT22;15667;52.376;9.708;2022-07-06T03:09:00;15.20;99.90
28438;DHT22;15667;52.376;9.708;2022-07-06T03:11:26;15.10;99.90
28438;DHT22;15667;52.376;9.708;2022-07-06T03:13:51;15.00;99.90
28438;DHT22;15667;52.376;9.708;2022-07-06T03:16:16;15.10;99.90
28438;DHT22;15667;52.376;9.708;2022-07-06T03:18:42;15.20;99.90
28438;DHT22;15667;52.376;9.708;2022-07-06T03:21:07;15.20;99.90
28438;DHT22;15667;52.376;9.708;2022-07-06T03:23:33;15.10;99.90
28438;DHT22;15667;52.376;9.708;2022-07-06T03:25:59;15.00;99.90
28438;DHT22;15667;52.376;9.708;2022-07-06T03:28:24;15.00;99.90
28438;DHT22;15667;52.376;9.708;2022-07-06T03:30:49;15.10;99.90
28438;DHT22;15667;52.376;9.708;2022-07-06T03:33:15;15.00;99.90
28438;DHT22;15667;52.376;9.708;2022-07-06T03:35:40;15.10;99.90
28438;DHT22;15667;52.376;9.708;2022-07-06T03:38:06;15.20;99.90
28438;DHT22;15667;52.376;9.708;2022-07-06T03:40:31;15.10;99.90
28438;DHT22;15667;52.376;9.708;2022-07-06T03:42:57;14.90;99.90
28438;DHT22;15667;52.376;9.708;2022-07-06T03:45:23;14.90;99.90
28438;DHT22;15667;52.376;9.708;2022-07-06T03:47:48;15.00;99.90
28438;DHT22;15667;52.376;9.708;2022-07-06T03:50:14;15.00;99.90
28438;DHT22;15667;52.376;9.708;2022-07-06T03:52:40;15.00;99.90
28438;DHT22;15667;52.376;9.708;2022-07-06T03:55:09;15.00;99.90
28438;DHT22;15667;52.376;9.708;2022-07-06T03:57:35;15.00;99.90
28438;DHT22;15667;52.376;9.708;2022-07-06T04:00:01;15.10;99.90
28438;DHT22;15667;52.376;9.708;2022-07-06T04:02:26;15.00;99.90
28438;DHT22;15667;52.376;9.708;2022-07-06T04:04:52;15.00;99.90
28438;DHT22;15667;52.376;9.708;2022-07-06T04:07:18;15.00;99.90
28438;DHT22;15667;52.376;9.708;2022-07-06T04:09:43;15.00;99.90
28438;DHT22;15667;52.376;9.708;2022-07-06T04:12:09;15.00;99.90
28438;DHT22;15667;52.376;9.708;2022-07-06T04:14:34;14.90;99.90
28438;DHT22;15667;52.376;9.708;2022-07-06T04:17:00;15.40;99.90
28438;DHT22;15667;52.376;9.708;2022-07-06T04:19:45;15.00;99.90
28438;DHT22;15667;52.376;9.708;2022-07-06T04:22:11;15.10;99.90
28438;DHT22;15667;52.376;9.708;2022-07-06T04:24:37;15.00;99.90
28438;DHT22;15667;52.376;9.708;2022-07-06T04:27:02;15.10;99.90
28438;DHT22;15667;52.376;9.708;2022-07-06T04:29:28;15.10;99.90
28438;DHT22;15667;52.376;9.708;2022-07-06T04:31:53;15.00;99.90
28438;DHT22;15667;52.376;9.708;2022-07-06T04:37:17;15.20;99.90
28438;DHT22;15667;52.376;9.708;2022-07-06T04:40:25;15.30;99.90
28438;DHT22;15667;52.376;9.708;2022-07-06T04:42:50;15.40;99.90
28438;DHT22;15667;52.376;9.708;2022-07-06T04:46:13;15.30;99.90
28438;DHT22;15667;52.376;9.708;2022-07-06T04:49:23;15.30;99.90
28438;DHT22;15667;52.376;9.708;2022-07-06T05:04:00;15.20;99.90
28438;DHT22;15667;52.376;9.708;2022-07-06T05:06:29;15.20;99.90
28438;DHT22;15667;52.376;9.708;2022-07-06T05:08:57;15.40;99.90
28438;DHT22;15667;52.376;9.708;2022-07-06T05:11:25;15.40;99.90
28438;DHT22;15667;52.376;9.708;2022-07-06T05:13:50;15.50;99.90
28438;DHT22;15667;52.376;9.708;2022-07-06T05:16:16;15.60;99.90
28438;DHT22;15667;52.376;9.708;2022-07-06T05:18:42;15.70;99.90
28438;DHT22;15667;52.376;9.708;2022-07-06T05:21:07;15.70;99.90
28438;DHT22;15667;52.376;9.708;2022-07-06T05:23:33;15.70;99.90
28438;DHT22;15667;52.376;9.708;2022-07-06T05:25:58;15.50;99.90
28438;DHT22;15667;52.376;9.708;2022-07-06T05:28:24;15.30;99.90
28438;DHT22;15667;52.376;9.708;2022-07-06T05:30:49;15.40;99.90
28438;DHT22;15667;52.376;9.708;2022-07-06T05:33:15;15.40;99.90
28438;DHT22;15667;52.376;9.708;2022-07-06T05:35:40;15.50;99.90
28438;DHT22;15667;52.376;9.708;2022-07-06T05:38:06;15.40;99.90
28438;DHT22;15667;52.376;9.708;2022-07-06T05:40:31;15.40;99.90
28438;DHT22;15667;52.376;9.708;2022-07-06T05:42:57;15.40;99.90
28438;DHT22;15667;52.376;9.708;2022-07-06T05:45:22;15.20;99.90
28438;DHT22;15667;52.376;9.708;2022-07-06T05:47:48;15.40;99.90
28438;DHT22;15667;52.376;9.708;2022-07-06T05:50:35;15.50;99.90
28438;DHT22;15667;52.376;9.708;2022-07-06T05:53:02;15.40;99.90
28438;DHT22;15667;52.376;9.708;2022-07-06T05:55:28;15.40;99.90
28438;DHT22;15667;52.376;9.708;2022-07-06T05:57:53;15.40;99.90
28438;DHT22;15667;52.376;9.708;2022-07-06T06:00:21;15.70;99.90
28438;DHT22;15667;52.376;9.708;2022-07-06T06:02:50;15.80;99.90
28438;DHT22;15667;52.376;9.708;2022-07-06T06:05:16;15.90;99.90
28438;DHT22;15667;52.376;9.708;2022-07-06T06:07:42;16.00;99.90
28438;DHT22;15667;52.376;9.708;2022-07-06T06:10:09;16.10;99.90
28438;DHT22;15667;52.376;9.708;2022-07-06T06:12:35;16.20;99.90
28438;DHT22;15667;52.376;9.708;2022-07-06T06:15:01;16.30;99.90
28438;DHT22;15667;52.376;9.708;2022-07-06T06:17:29;16.30;99.90
28438;DHT22;15667;52.376;9.708;2022-07-06T06:19:54;16.50;99.90
28438;DHT22;15667;52.376;9.708;2022-07-06T06:22:20;16.50;99.90
28438;DHT22;15667;52.376;9.708;2022-07-06T06:24:55;16.60;99.90
28438;DHT22;15667;52.376;9.708;2022-07-06T06:27:40;16.60;99.90
28438;DHT22;15667;52.376;9.708;2022-07-06T06:30:06;16.60;99.90
28438;DHT22;15667;52.376;9.708;2022-07-06T06:32:32;16.60;99.90
28438;DHT22;15667;52.376;9.708;2022-07-06T06:34:58;16.40;99.90
28438;DHT22;15667;52.376;9.708;2022-07-06T06:37:23;16.60;99.90
28438;DHT22;15667;52.376;9.708;2022-07-06T06:39:49;16.60;99.90
28438;DHT22;15667;52.376;9.708;2022-07-06T06:42:17;16.60;99.90
28438;DHT22;15667;52.376;9.708;2022-07-06T06:44:45;16.40;99.90
28438;DHT22;15667;52.376;9.708;2022-07-06T06:47:13;16.60;99.90
28438;DHT22;15667;52.376;9.708;2022-07-06T06:49:40;16.50;99.90
28438;DHT22;15667;52.376;9.708;2022-07-06T06:52:51;16.50;99.90
28438;DHT22;15667;52.376;9.708;2022-07-06T06:55:17;16.50;99.90
28438;DHT22;15667;52.376;9.708;2022-07-06T06:57:45;16.50;99.90
28438;DHT22;15667;52.376;9.708;2022-07-06T07:00:11;16.60;99.90
28438;DHT22;15667;52.376;9.708;2022-07-06T07:02:37;16.60;99.90
28438;DHT22;15667;52.376;9.708;2022-07-06T07:05:04;16.60;99.90
28438;DHT22;15667;52.376;9.708;2022-07-06T07:07:30;16.60;99.90
28438;DHT22;15667;52.376;9.708;2022-07-06T07:09:55;16.70;99.90
28438;DHT22;15667;52.376;9.708;2022-07-06T07:12:21;16.60;99.90
28438;DHT22;15667;52.376;9.708;2022-07-06T07:14:47;16.40;99.90
28438;DHT22;15667;52.376;9.708;2022-07-06T07:17:12;16.70;99.90
28438;DHT22;15667;52.376;9.708;2022-07-06T07:19:38;16.80;99.90
28438;DHT22;15667;52.376;9.708;2022-07-06T07:22:04;17.00;99.90
28438;DHT22;15667;52.376;9.708;2022-07-06T07:24:29;16.70;99.90
28438;DHT22;15667;52.376;9.708;2022-07-06T07:26:55;16.70;99.90
28438;DHT22;15667;52.376;9.708;2022-07-06T07:29:20;16.80;99.90
28438;DHT22;15667;52.376;9.708;2022-07-06T07:31:46;17.00;99.90
28438;DHT22;15667;52.376;9.708;2022-07-06T07:34:11;16.90;99.90
28438;DHT22;15667;52.376;9.708;2022-07-06T07:36:37;17.10;99.90
28438;DHT22;15667;52.376;9.708;2022-07-06T07:39:03;17.00;99.90
28438;DHT22;15667;52.376;9.708;2022-07-06T07:41:28;17.10;99.90
28438;DHT22;15667;52.376;9.708;2022-07-06T07:43:54;17.00;99.90
28438;DHT22;15667;52.376;9.708;2022-07-06T07:46:19;17.00;99.90
28438;DHT22;15667;52.376;9.708;2022-07-06T07:48:45;17.20;99.90
28438;DHT22;15667;52.376;9.708;2022-07-06T07:51:10;17.40;99.90
28438;DHT22;15667;52.376;9.708;2022-07-06T07:53:36;17.40;99.90
28438;DHT22;15667;52.376;9.708;2022-07-06T07:56:01;17.60;99.90
28438;DHT22;15667;52.376;9.708;2022-07-06T07:58:27;17.60;99.90
28438;DHT22;15667;52.376;9.708;2022-07-06T08:00:53;17.60;99.90
28438;DHT22;15667;52.376;9.708;2022-07-06T08:03:18;17.50;99.90
28438;DHT22;15667;52.376;9.708;2022-07-06T08:05:44;17.40;99.90
28438;DHT22;15667;52.376;9.708;2022-07-06T08:08:09;17.40;99.90
28438;DHT22;15667;52.376;9.708;2022-07-06T08:10:35;17.40;99.90
28438;DHT22;15667;52.376;9.708;2022-07-06T08:13:01;17.60;99.90
28438;DHT22;15667;52.376;9.708;2022-07-06T08:15:26;17.70;99.90
28438;DHT22;15667;52.376;9.708;2022-07-06T08:17:52;17.80;99.90
28438;DHT22;15667;52.376;9.708;2022-07-06T08:20:17;17.60;99.90
28438;DHT22;15667;52.376;9.708;2022-07-06T08:22:44;17.50;99.90
28438;DHT22;15667;52.376;9.708;2022-07-06T08:25:09;18.00;99.90
28438;DHT22;15667;52.376;9.708;2022-07-06T08:27:35;18.00;99.90
28438;DHT22;15667;52.376;9.708;2022-07-06T08:30:02;18.20;99.90
28438;DHT22;15667;52.376;9.708;2022-07-06T08:32:27;18.30;99.90
28438;DHT22;15667;52.376;9.708;2022-07-06T08:34:53;18.50;99.90
28438;DHT22;15667;52.376;9.708;2022-07-06T08:37:19;18.80;99.90
28438;DHT22;15667;52.376;9.708;2022-07-06T08:39:45;18.80;99.90
28438;DHT22;15667;52.376;9.708;2022-07-06T08:42:10;18.60;99.90
28438;DHT22;15667;52.376;9.708;2022-07-06T08:44:37;18.60;99.90
28438;DHT22;15667;52.376;9.708;2022-07-06T08:47:06;18.50;99.90
28438;DHT22;15667;52.376;9.708;2022-07-06T08:49:32;18.40;99.90
28438;DHT22;15667;52.376;9.708;2022-07-06T08:51:59;18.40;99.90
28438;DHT22;15667;52.376;9.708;2022-07-06T08:54:25;18.50;99.90
28438;DHT22;15667;52.376;9.708;2022-07-06T08:56:51;19.00;99.90
28438;DHT22;15667;52.376;9.708;2022-07-06T08:59:17;19.00;99.90
28438;DHT22;15667;52.376;9.708;2022-07-06T09:01:46;18.60;99.90
28438;DHT22;15667;52.376;9.708;2022-07-06T09:04:12;18.70;99.90
28438;DHT22;15667;52.376;9.708;2022-07-06T09:06:40;18.90;99.90
28438;DHT22;15667;52.376;9.708;2022-07-06T09:09:07;18.90;99.90
28438;DHT22;15667;52.376;9.708;2022-07-06T09:11:32;18.80;99.90
28438;DHT22;15667;52.376;9.708;2022-07-06T09:13:58;18.80;99.90
28438;DHT22;15667;52.376;9.708;2022-07-06T09:16:28;18.70;99.90
28438;DHT22;15667;52.376;9.708;2022-07-06T09:18:55;18.70;99.90
28438;DHT22;15667;52.376;9.708;2022-07-06T09:21:30;19.00;99.90
28438;DHT22;15667;52.376;9.708;2022-07-06T09:23:58;19.20;99.90
28438;DHT22;15667;52.376;9.708;2022-07-06T09:26:23;19.10;99.90
28438;DHT22;15667;52.376;9.708;2022-07-06T09:28:49;18.80;99.90
28438;DHT22;15667;52.376;9.708;2022-07-06T09:31:15;18.60;99.90
28438;DHT22;15667;52.376;9.708;2022-07-06T09:34:00;18.70;99.90
28438;DHT22;15667;52.376;9.708;2022-07-06T09:36:37;18.60;99.90
28438;DHT22;15667;52.376;9.708;2022-07-06T09:39:20;18.40;99.90
28438;DHT22;15667;52.376;9.708;2022-07-06T09:41:46;18.30;99.90
28438;DHT22;15667;52.376;9.708;2022-07-06T09:44:12;18.50;99.90
28438;DHT22;15667;52.376;9.708;2022-07-06T09:46:39;18.40;99.90
28438;DHT22;15667;52.376;9.708;2022-07-06T09:49:06;18.70;99.90
28438;DHT22;15667;52.376;9.708;2022-07-06T09:51:31;18.40;99.90
28438;DHT22;15667;52.376;9.708;2022-07-06T09:53:57;18.80;99.90
28438;DHT22;15667;52.376;9.708;2022-07-06T09:56:35;18.70;99.90
28438;DHT22;15667;52.376;9.708;2022-07-06T09:59:12;18.70;99.90
28438;DHT22;15667;52.376;9.708;2022-07-06T10:01:38;18.60;99.90
28438;DHT22;15667;52.376;9.708;2022-07-06T10:04:07;18.80;99.90
28438;DHT22;15667;52.376;9.708;2022-07-06T10:06:33;19.00;99.90
28438;DHT22;15667;52.376;9.708;2022-07-06T10:08:59;19.20;99.90
28438;DHT22;15667;52.376;9.708;2022-07-06T10:11:25;19.20;99.90
28438;DHT22;15667;52.376;9.708;2022-07-06T10:13:54;19.70;99.90
28438;DHT22;15667;52.376;9.708;2022-07-06T10:16:21;19.80;99.90
28438;DHT22;15667;52.376;9.708;2022-07-06T10:18:47;19.90;99.90
28438;DHT22;15667;52.376;9.708;2022-07-06T10:21:15;19.70;99.90
28438;DHT22;15667;52.376;9.708;2022-07-06T10:23:41;19.70;99.90
28438;DHT22;15667;52.376;9.708;2022-07-06T10:26:07;19.70;99.90
28438;DHT22;15667;52.376;9.708;2022-07-06T10:28:33;19.90;99.90
28438;DHT22;15667;52.376;9.708;2022-07-06T10:30:59;19.80;99.90
28438;DHT22;15667;52.376;9.708;2022-07-06T10:33:25;19.80;99.90
28438;DHT22;15667;52.376;9.708;2022-07-06T10:38:35;19.50;99.90
28438;DHT22;15667;52.376;9.708;2022-07-06T10:41:02;19.20;99.90
28438;DHT22;15667;52.376;9.708;2022-07-06T10:43:46;18.90;99.90
28438;DHT22;15667;52.376;9.708;2022-07-06T10:46:13;18.90;99.90
28438;DHT22;15667;52.376;9.708;2022-07-06T10:48:39;18.80;99.90
28438;DHT22;15667;52.376;9.708;2022-07-06T10:51:04;19.10;99.90
28438;DHT22;15667;52.376;9.708;2022-07-06T10:53:32;19.20;99.90
28438;DHT22;15667;52.376;9.708;2022-07-06T10:56:04;19.00;99.90
28438;DHT22;15667;52.376;9.708;2022-07-06T11:01:06;19.90;99.90
28438;DHT22;15667;52.376;9.708;2022-07-06T11:03:38;20.40;99.90
28438;DHT22;15667;52.376;9.708;2022-07-06T11:06:05;20.30;99.90
28438;DHT22;15667;52.376;9.708;2022-07-06T11:11:16;20.60;99.90
28438;DHT22;15667;52.376;9.708;2022-07-06T11:16:14;19.70;99.90
28438;DHT22;15667;52.376;9.708;2022-07-06T11:18:41;19.40;99.90
28438;DHT22;15667;52.376;9.708;2022-07-06T11:21:17;19.30;99.90
28438;DHT22;15667;52.376;9.708;2022-07-06T11:23:43;19.20;99.90
28438;DHT22;15667;52.376;9.708;2022-07-06T11:26:10;19.10;99.90
28438;DHT22;15667;52.376;9.708;2022-07-06T11:28:37;19.00;99.90
28438;DHT22;15667;52.376;9.708;2022-07-06T11:31:02;19.10;99.90
28438;DHT22;15667;52.376;9.708;2022-07-06T11:33:28;18.90;99.90
28438;DHT22;15667;52.376;9.708;2022-07-06T11:38:49;18.50;99.90
28438;DHT22;15667;52.376;9.708;2022-07-06T11:41:16;18.50;99.90
28438;DHT22;15667;52.376;9.708;2022-07-06T11:43:42;18.60;99.90
28438;DHT22;15667;52.376;9.708;2022-07-06T11:46:24;18.60;99.90
28438;DHT22;15667;52.376;9.708;2022-07-06T11:48:51;18.70;99.90
28438;DHT22;15667;52.376;9.708;2022-07-06T11:51:17;18.60;99.90
28438;DHT22;15667;52.376;9.708;2022-07-06T11:53:43;18.60;99.90
28438;DHT22;15667;52.376;9.708;2022-07-06T11:56:09;18.60;99.90
28438;DHT22;15667;52.376;9.708;2022-07-06T11:58:34;18.60;99.90
28438;DHT22;15667;52.376;9.708;2022-07-06T13:09:15;22.20;99.90
28438;DHT22;15667;52.376;9.708;2022-07-06T14:10:15;22.90;97.40
28438;DHT22;15667;52.376;9.708;2022-07-06T14:12:40;22.60;97.20
28438;DHT22;15667;52.376;9.708;2022-07-06T14:15:06;22.50;97.60
28438;DHT22;15667;52.376;9.708;2022-07-06T14:17:31;23.20;97.10
28438;DHT22;15667;52.376;9.708;2022-07-06T14:19:57;24.10;95.50
28438;DHT22;15667;52.376;9.708;2022-07-06T14:22:23;24.40;94.80
28438;DHT22;15667;52.376;9.708;2022-07-06T14:24:48;24.40;94.20
28438;DHT22;15667;52.376;9.708;2022-07-06T14:27:14;23.80;94.50
28438;DHT22;15667;52.376;9.708;2022-07-06T14:29:39;23.10;95.50
28438;DHT22;15667;52.376;9.708;2022-07-06T14:32:05;23.60;95.70
28438;DHT22;15667;52.376;9.708;2022-07-06T14:34:30;25.00;94.50
28438;DHT22;15667;52.376;9.708;2022-07-06T14:36:56;25.30;93.30
28438;DHT22;15667;52.376;9.708;2022-07-06T14:39:21;24.50;94.00
28438;DHT22;15667;52.376;9.708;2022-07-06T14:41:47;23.80;93.90
28438;DHT22;15667;52.376;9.708;2022-07-06T14:44:12;24.10;94.60
28438;DHT22;15667;52.376;9.708;2022-07-06T14:46:38;25.10;93.50
28438;DHT22;15667;52.376;9.708;2022-07-06T14:49:03;25.30;92.60
28438;DHT22;15667;52.376;9.708;2022-07-06T14:51:29;25.40;92.10
28438;DHT22;15667;52.376;9.708;2022-07-06T14:53:54;24.60;92.10
28438;DHT22;15667;52.376;9.708;2022-07-06T14:56:20;24.40;93.90
28438;DHT22;15667;52.376;9.708;2022-07-06T14:58:46;24.70;92.90
28438;DHT22;15667;52.376;9.708;2022-07-06T15:01:11;24.70;93.10
28438;DHT22;15667;52.376;9.708;2022-07-06T15:03:37;24.20;93.80
28438;DHT22;15667;52.376;9.708;2022-07-06T15:06:02;24.40;93.50
28438;DHT22;15667;52.376;9.708;2022-07-06T15:08:28;24.20;93.50
28438;DHT22;15667;52.376;9.708;2022-07-06T15:10:53;23.90;93.40
28438;DHT22;15667;52.376;9.708;2022-07-06T15:13:19;24.20;93.20
28438;DHT22;15667;52.376;9.708;2022-07-06T15:15:45;24.50;92.90
28438;DHT22;15667;52.376;9.708;2022-07-06T15:18:10;24.70;92.40
28438;DHT22;15667;52.376;9.708;2022-07-06T15:20:36;25.40;92.40
28438;DHT22;15667;52.376;9.708;2022-07-06T15:23:01;25.60;91.70
28438;DHT22;15667;52.376;9.708;2022-07-06T15:25:27;24.30;92.70
28438;DHT22;15667;52.376;9.708;2022-07-06T15:27:52;23.20;93.60
28438;DHT22;15667;52.376;9.708;2022-07-06T15:30:18;22.90;94.40
28438;DHT22;15667;52.376;9.708;2022-07-06T15:32:44;22.30;94.60
28438;DHT22;15667;52.376;9.708;2022-07-06T15:35:09;22.00;95.40
28438;DHT22;15667;52.376;9.708;2022-07-06T15:37:35;21.90;95.40
28438;DHT22;15667;52.376;9.708;2022-07-06T15:40:02;21.50;95.80
28438;DHT22;15667;52.376;9.708;2022-07-06T15:42:57;21.60;95.80
28438;DHT22;15667;52.376;9.708;2022-07-06T15:45:22;23.20;94.40
28438;DHT22;15667;52.376;9.708;2022-07-06T15:47:51;24.40;93.20
28438;DHT22;15667;52.376;9.708;2022-07-06T15:50:17;24.30;92.70
28438;DHT22;15667;52.376;9.708;2022-07-06T15:52:45;23.60;93.30
28438;DHT22;15667;52.376;9.708;2022-07-06T15:55:11;23.00;93.80
28438;DHT22;15667;52.376;9.708;2022-07-06T15:57:39;22.60;94.20
28438;DHT22;15667;52.376;9.708;2022-07-06T16:00:05;22.30;94.50
28438;DHT22;15667;52.376;9.708;2022-07-06T16:02:31;22.00;94.80
28438;DHT22;15667;52.376;9.708;2022-07-06T16:04:56;21.70;95.40
28438;DHT22;15667;52.376;9.708;2022-07-06T16:07:22;21.70;95.10
28438;DHT22;15667;52.376;9.708;2022-07-06T16:09:47;21.70;95.30
28438;DHT22;15667;52.376;9.708;2022-07-06T16:12:13;21.90;95.10
28438;DHT22;15667;52.376;9.708;2022-07-06T16:14:39;21.80;95.40
28438;DHT22;15667;52.376;9.708;2022-07-06T16:17:23;21.60;95.90
28438;DHT22;15667;52.376;9.708;2022-07-06T16:19:48;21.10;96.50
28438;DHT22;15667;52.376;9.708;2022-07-06T16:22:19;20.70;99.90
28438;DHT22;15667;52.376;9.708;2022-07-06T16:24:46;20.00;99.90
28438;DHT22;15667;52.376;9.708;2022-07-06T16:27:14;19.90;99.70
28438;DHT22;15667;52.376;9.708;2022-07-06T16:29:40;20.30;98.50
28438;DHT22;15667;52.376;9.708;2022-07-06T16:32:05;20.50;98.10
28438;DHT22;15667;52.376;9.708;2022-07-06T16:34:31;20.40;97.90
28438;DHT22;15667;52.376;9.708;2022-07-06T16:36:56;20.70;97.60
28438;DHT22;15667;52.376;9.708;2022-07-06T16:39:22;21.00;97.00
28438;DHT22;15667;52.376;9.708;2022-07-06T16:41:47;21.20;96.70
28438;DHT22;15667;52.376;9.708;2022-07-06T16:44:14;21.30;96.80
28438;DHT22;15667;52.376;9.708;2022-07-06T16:46:39;21.20;96.80
28438;DHT22;15667;52.376;9.708;2022-07-06T16:49:05;21.10;96.90
28438;DHT22;15667;52.376;9.708;2022-07-06T16:51:33;20.90;97.20
28438;DHT22;15667;52.376;9.708;2022-07-06T16:53:58;20.90;98.00
28438;DHT22;15667;52.376;9.708;2022-07-06T16:56:26;20.90;97.40
28438;DHT22;15667;52.376;9.708;2022-07-06T16:58:58;20.90;97.40
28438;DHT22;15667;52.376;9.708;2022-07-06T17:01:24;20.70;97.70
28438;DHT22;15667;52.376;9.708;2022-07-06T17:03:50;20.60;97.50
28438;DHT22;15667;52.376;9.708;2022-07-06T17:06:15;20.50;97.70
28438;DHT22;15667;52.376;9.708;2022-07-06T17:08:41;20.50;98.10
28438;DHT22;15667;52.376;9.708;2022-07-06T17:11:06;20.30;98.50
28438;DHT22;15667;52.376;9.708;2022-07-06T17:13:32;20.20;98.30
28438;DHT22;15667;52.376;9.708;2022-07-06T17:15:58;20.10;98.30
28438;DHT22;15667;52.376;9.708;2022-07-06T17:18:23;20.10;98.50
28438;DHT22;15667;52.376;9.708;2022-07-06T17:20:49;20.20;98.90
28438;DHT22;15667;52.376;9.708;2022-07-06T17:23:17;20.10;98.60
28438;DHT22;15667;52.376;9.708;2022-07-06T17:25:43;20.10;99.00
28438;DHT22;15667;52.376;9.708;2022-07-06T17:28:08;20.20;98.60
28438;DHT22;15667;52.376;9.708;2022-07-06T17:30:37;20.20;99.00
28438;DHT22;15667;52.376;9.708;2022-07-06T17:33:03;20.20;99.20
28438;DHT22;15667;52.376;9.708;2022-07-06T17:35:28;20.20;99.30
28438;DHT22;15667;52.376;9.708;2022-07-06T17:37:55;20.20;99.00
28438;DHT22;15667;52.376;9.708;2022-07-06T17:40:20;20.00;99.50
28438;DHT22;15667;52.376;9.708;2022-07-06T17:42:49;20.10;99.00
28438;DHT22;15667;52.376;9.708;2022-07-06T17:45:14;20.00;99.10
28438;DHT22;15667;52.376;9.708;2022-07-06T17:47:40;20.10;99.30
28438;DHT22;15667;52.376;9.708;2022-07-06T17:50:05;20.20;99.00
28438;DHT22;15667;52.376;9.708;2022-07-06T17:52:31;20.00;99.40
28438;DHT22;15667;52.376;9.708;2022-07-06T17:54:57;20.00;98.70
28438;DHT22;15667;52.376;9.708;2022-07-06T17:57:22;19.90;98.80
28438;DHT22;15667;52.376;9.708;2022-07-06T17:59:48;20.00;99.00
28438;DHT22;15667;52.376;9.708;2022-07-06T18:02:13;20.00;99.10
28438;DHT22;15667;52.376;9.708;2022-07-06T18:04:39;19.90;98.90